Time;durP1;ratioP1;P1;durP2;ratioP2;P2;SDS_P1;SDS_P2;PMS_P1;PMS_P2;Temp;Humidity;BMP_temperature;BMP_pressure;BME280_temperature;BME280_humidity;BME280_pressure;Samples;Min_cycle;Max_cycle;Signal;HPM_P1;HPM_P2
2023/08/16 00:00:41;;;;;;;30.20;14.88;;;24.30;99.90;;;;;;5128461;28;20053;-75
2023/08/16 00:03:12;;;;;;;33.15;14.38;;;24.30;99.90;;;;;;5128234;28;20421;-75
2023/08/16 00:05:43;;;;;;;30.20;14.95;;;24.20;99.90;;;;;;5145999;28;20034;-75
2023/08/16 00:08:14;;;;;;;31.48;14.93;;;24.30;99.90;;;;;;5145747;28;20031;-77
2023/08/16 00:10:45;;;;;;;34.13;15.45;;;24.20;99.90;;;;;;5145913;28;20035;-75
2023/08/16 00:13:16;;;;;;;33.28;14.63;;;24.20;99.90;;;;;;5145901;28;20419;-79
2023/08/16 00:15:47;;;;;;;30.90;14.73;;;24.30;99.90;;;;;;5146098;28;20476;-77
2023/08/16 00:18:18;;;;;;;27.38;15.15;;;24.30;99.90;;;;;;5145928;28;20026;-78
2023/08/16 00:20:48;;;;;;;25.40;15.18;;;24.30;99.90;;;;;;5146130;28;20031;-79
2023/08/16 00:23:19;;;;;;;30.40;15.70;;;24.20;99.90;;;;;;5128315;28;20052;-77
2023/08/16 00:25:50;;;;;;;27.02;14.70;;;24.10;99.90;;;;;;5127917;28;20047;-75
2023/08/16 00:28:21;;;;;;;25.00;15.20;;;24.20;99.90;;;;;;5145737;28;20026;-75
2023/08/16 00:30:55;;;;;;;27.58;14.45;;;24.10;99.90;;;;;;5145893;28;20490;-75
2023/08/16 00:33:26;;;;;;;31.58;15.70;;;24.30;99.90;;;;;;5145561;28;20050;-75
2023/08/16 00:35:57;;;;;;;29.60;14.85;;;24.20;99.90;;;;;;5145785;28;20030;-75
2023/08/16 00:38:28;;;;;;;30.83;15.13;;;24.30;99.90;;;;;;5145651;28;20023;-75
2023/08/16 00:40:59;;;;;;;29.83;15.02;;;24.20;99.90;;;;;;5145818;28;20033;-75
2023/08/16 00:43:30;;;;;;;26.05;14.63;;;24.30;99.90;;;;;;5145694;28;20021;-78
2023/08/16 00:46:01;;;;;;;22.75;14.02;;;24.30;99.90;;;;;;5127842;28;20443;-75
2023/08/16 00:48:34;;;;;;;25.85;14.75;;;24.20;99.90;;;;;;5128464;28;20058;-75
2023/08/16 00:51:06;;;;;;;33.33;15.57;;;24.10;99.90;;;;;;5147122;28;20099;-75
2023/08/16 00:53:40;;;;;;;34.58;17.25;;;24.00;99.90;;;;;;5132154;28;20110;-75
2023/08/16 00:56:11;;;;;;;33.17;16.45;;;24.10;99.90;;;;;;5149447;28;20046;-76
2023/08/16 00:58:43;;;;;;;35.17;16.73;;;24.10;99.90;;;;;;5149508;28;20034;-77
2023/08/16 01:01:15;;;;;;;36.28;16.15;;;24.10;99.90;;;;;;5149573;28;20053;-77
2023/08/16 01:03:47;;;;;;;68.60;43.72;;;24.20;99.90;;;;;;5131993;28;20058;-78
2023/08/16 01:06:17;;;;;;;63.22;39.95;;;24.10;99.90;;;;;;5149612;28;20023;-79
2023/08/16 01:08:48;;;;;;;56.80;35.45;;;24.10;99.90;;;;;;5149352;28;20026;-79
2023/08/16 01:11:43;;;;;;;46.25;27.17;;;24.20;99.90;;;;;;5149319;28;20026;-76
2023/08/16 01:14:24;;;;;;;48.65;29.30;;;24.20;99.90;;;;;;5131994;28;20034;-75
2023/08/16 01:16:57;;;;;;;62.30;34.97;;;24.20;99.90;;;;;;5149134;28;20042;-75
2023/08/16 01:19:29;;;;;;;60.63;33.63;;;24.20;99.90;;;;;;5131675;28;20507;-74
2023/08/16 01:22:37;;;;;;;52.65;32.50;;;24.20;99.90;;;;;;5149144;28;20030;-75
2023/08/16 01:25:32;;;;;;;58.50;35.45;;;24.20;99.90;;;;;;5148601;28;20065;-79
2023/08/16 01:28:05;;;;;;;57.67;29.13;;;24.30;99.90;;;;;;5148843;28;20031;-76
2023/08/16 01:30:37;;;;;;;52.30;30.90;;;24.30;99.90;;;;;;5131493;28;20041;-75
2023/08/16 01:33:10;;;;;;;41.85;25.63;;;24.30;99.90;;;;;;5148763;28;20026;-75
2023/08/16 01:35:41;;;;;;;47.17;31.55;;;24.30;99.90;;;;;;5148721;28;20031;-75
2023/08/16 01:38:13;;;;;;;58.75;37.22;;;24.40;99.90;;;;;;5148792;28;20420;-79
2023/08/16 01:40:52;;;;;;;40.28;30.60;;;24.50;99.90;;;;;;5148511;28;20631;-78
2023/08/16 01:43:23;;;;;;;49.75;32.80;;;24.30;99.90;;;;;;5131487;28;20034;-80
2023/08/16 01:45:54;;;;;;;31.45;14.32;;;24.30;99.90;;;;;;5148584;28;20026;-79
2023/08/16 01:48:26;;;;;;;29.30;15.02;;;24.30;99.90;;;;;;5131252;28;20471;-75
2023/08/16 01:50:57;;;;;;;31.48;16.08;;;24.20;99.90;;;;;;5131426;28;20030;-75
2023/08/16 01:53:28;;;;;;;29.17;15.32;;;24.20;99.90;;;;;;5131051;28;20085;-75
2023/08/16 01:55:59;;;;;;;29.10;14.50;;;24.30;99.90;;;;;;5148510;28;20057;-75
2023/08/16 01:58:30;;;;;;;30.38;15.30;;;24.30;99.90;;;;;;5131023;28;20034;-75
2023/08/16 02:01:01;;;;;;;27.67;13.98;;;24.30;99.90;;;;;;5148029;28;20027;-78
2023/08/16 02:03:33;;;;;;;26.85;13.85;;;24.40;99.90;;;;;;5147916;28;20058;-78
2023/08/16 02:06:03;;;;;;;121.60;25.30;;;24.30;99.90;;;;;;5148264;28;20104;-78
2023/08/16 02:08:34;;;;;;;61.50;17.83;;;24.30;99.90;;;;;;5148276;28;20035;-75
2023/08/16 02:11:05;;;;;;;31.42;13.95;;;24.30;99.90;;;;;;5130551;28;20031;-76
2023/08/16 02:13:36;;;;;;;27.17;14.07;;;24.30;99.90;;;;;;5148320;28;20038;-76
2023/08/16 02:16:07;;;;;;;90.07;22.88;;;24.40;99.90;;;;;;5147990;28;20030;-75
2023/08/16 02:18:38;;;;;;;96.20;21.60;;;24.30;99.90;;;;;;5130419;28;20035;-79
2023/08/16 02:21:11;;;;;;;32.05;13.43;;;24.30;99.90;;;;;;5147989;28;20039;-79
2023/08/16 02:23:46;;;;;;;33.60;13.95;;;24.30;99.90;;;;;;5130443;28;20023;-79
2023/08/16 02:26:17;;;;;;;27.70;13.18;;;24.40;99.90;;;;;;5147780;28;20042;-78
2023/08/16 02:28:49;;;;;;;31.00;13.20;;;24.50;99.90;;;;;;5147941;28;20049;-80
2023/08/16 02:31:20;;;;;;;34.80;13.30;;;24.50;99.90;;;;;;5147532;28;20026;-78
2023/08/16 02:33:51;;;;;;;26.08;12.95;;;24.40;99.90;;;;;;5147750;28;20374;-75
2023/08/16 02:36:22;;;;;;;31.35;13.70;;;24.40;99.90;;;;;;5147372;28;20352;-75
2023/08/16 02:38:53;;;;;;;28.63;12.88;;;24.40;99.90;;;;;;5130150;28;20553;-75
2023/08/16 02:41:24;;;;;;;28.40;12.10;;;24.50;99.90;;;;;;5147296;28;20038;-76
2023/08/16 02:43:55;;;;;;;32.47;12.77;;;24.50;99.90;;;;;;5130328;28;20467;-75
2023/08/16 02:46:25;;;;;;;28.98;13.90;;;24.40;99.90;;;;;;5147360;28;20023;-75
2023/08/16 02:48:56;;;;;;;28.90;13.13;;;24.50;99.90;;;;;;5147656;28;20035;-75
2023/08/16 02:51:27;;;;;;;34.40;13.50;;;24.40;99.90;;;;;;5147526;28;20097;-79
2023/08/16 02:53:58;;;;;;;35.25;14.15;;;24.50;99.90;;;;;;5147334;28;20483;-75
2023/08/16 02:56:29;;;;;;;36.10;13.07;;;24.40;99.90;;;;;;5147383;28;20030;-75
2023/08/16 02:59:00;;;;;;;28.27;12.98;;;24.50;99.90;;;;;;5147092;28;20049;-76
2023/08/16 03:01:31;;;;;;;30.58;13.27;;;24.60;99.90;;;;;;5147108;28;20031;-76
2023/08/16 03:04:02;;;;;;;28.20;13.05;;;24.60;99.90;;;;;;5146935;28;20026;-75
2023/08/16 03:06:32;;;;;;;29.27;12.60;;;24.70;99.90;;;;;;5147141;28;20038;-77
2023/08/16 03:09:04;;;;;;;28.35;12.73;;;24.70;99.90;;;;;;5146788;28;20053;-79
2023/08/16 03:11:35;;;;;;;26.15;12.38;;;24.70;99.90;;;;;;5129672;28;20107;-75
2023/08/16 03:14:05;;;;;;;30.70;13.48;;;24.70;99.90;;;;;;5146068;28;20455;-78
2023/08/16 03:16:36;;;;;;;31.98;13.25;;;24.60;99.90;;;;;;5129338;28;20109;-75
2023/08/16 03:19:07;;;;;;;29.17;13.73;;;24.60;99.90;;;;;;5146699;28;20070;-75
2023/08/16 03:21:38;;;;;;;31.45;13.52;;;24.70;99.90;;;;;;5129119;28;20363;-75
2023/08/16 03:24:09;;;;;;;26.73;12.60;;;24.70;99.90;;;;;;5144695;28;20057;-77
2023/08/16 03:26:39;;;;;;;38.88;13.77;;;24.80;99.90;;;;;;5129289;28;20134;-81
2023/08/16 03:29:10;;;;;;;30.67;12.55;;;24.70;99.90;;;;;;5146722;28;20035;-80
2023/08/16 03:31:41;;;;;;;32.65;14.27;;;24.80;99.90;;;;;;5130115;28;20026;-79
2023/08/16 03:34:12;;;;;;;30.10;13.13;;;24.80;99.90;;;;;;5146988;28;20034;-77
2023/08/16 03:36:43;;;;;;;34.38;14.05;;;24.70;99.90;;;;;;5147006;28;20023;-77
2023/08/16 03:39:14;;;;;;;54.78;14.52;;;24.70;99.90;;;;;;5146438;28;20043;-78
2023/08/16 03:41:45;;;;;;;32.97;13.05;;;24.70;99.90;;;;;;5129341;28;20029;-77
2023/08/16 03:44:15;;;;;;;31.15;13.27;;;24.70;99.90;;;;;;5125788;29;20067;-77
2023/08/16 03:46:46;;;;;;;31.08;12.98;;;24.70;99.90;;;;;;5109497;29;20027;-78
2023/08/16 03:49:17;;;;;;;29.50;13.40;;;24.70;99.90;;;;;;5126116;28;20533;-77
2023/08/16 03:51:48;;;;;;;28.85;13.90;;;24.80;99.90;;;;;;5146493;28;20570;-77
2023/08/16 03:54:19;;;;;;;26.30;13.30;;;24.80;99.90;;;;;;5146520;28;20031;-77
2023/08/16 03:56:50;;;;;;;43.15;14.55;;;24.70;99.90;;;;;;5129316;28;20380;-77
2023/08/16 03:59:20;;;;;;;27.90;13.43;;;24.70;99.90;;;;;;5129265;28;20558;-78
2023/08/16 04:01:51;;;;;;;35.35;15.00;;;24.80;99.90;;;;;;5146773;28;20074;-77
2023/08/16 04:04:22;;;;;;;28.45;13.82;;;24.70;99.90;;;;;;5146593;28;20422;-77
2023/08/16 04:06:53;;;;;;;32.63;13.82;;;24.80;99.90;;;;;;5146524;28;20018;-77
2023/08/16 04:09:24;;;;;;;30.90;13.80;;;24.70;99.90;;;;;;5146511;28;20038;-77
2023/08/16 04:11:55;;;;;;;37.05;13.65;;;24.80;99.90;;;;;;5128932;28;20027;-78
2023/08/16 04:14:26;;;;;;;31.92;13.40;;;24.80;99.90;;;;;;5146480;28;20018;-82
2023/08/16 04:16:57;;;;;;;33.88;14.98;;;24.90;99.90;;;;;;5146217;28;20382;-77
2023/08/16 04:19:27;;;;;;;36.13;13.85;;;24.80;99.90;;;;;;5128947;28;20121;-82
2023/08/16 04:21:58;;;;;;;29.70;14.90;;;24.80;99.90;;;;;;5146225;28;20109;-77
2023/08/16 04:24:29;;;;;;;28.08;15.18;;;24.80;99.90;;;;;;5128431;28;20050;-82
2023/08/16 04:27:00;;;;;;;30.40;15.20;;;24.80;99.90;;;;;;5128939;28;20031;-79
2023/08/16 04:29:31;;;;;;;29.88;13.90;;;24.90;99.90;;;;;;5146309;28;20050;-77
2023/08/16 04:32:02;;;;;;;29.25;14.40;;;24.90;99.90;;;;;;5146254;28;20100;-77
2023/08/16 04:34:33;;;;;;;39.60;14.80;;;24.80;99.90;;;;;;5128924;28;20062;-77
2023/08/16 04:37:04;;;;;;;31.25;14.35;;;24.90;99.90;;;;;;5146263;28;20727;-77
2023/08/16 04:39:34;;;;;;;31.60;15.23;;;25.00;99.90;;;;;;5128721;28;20034;-78
2023/08/16 04:42:05;;;;;;;32.25;14.70;;;24.90;99.90;;;;;;5128794;28;20034;-80
2023/08/16 04:44:36;;;;;;;32.85;14.52;;;24.90;99.90;;;;;;5128542;28;20158;-77
2023/08/16 04:47:07;;;;;;;31.63;15.32;;;25.00;99.90;;;;;;5145967;28;20027;-77
2023/08/16 04:49:38;;;;;;;37.17;15.30;;;25.00;99.90;;;;;;5128738;28;20367;-78
2023/08/16 04:52:09;;;;;;;36.88;15.05;;;25.00;99.90;;;;;;5128672;28;20089;-78
2023/08/16 04:54:40;;;;;;;98.38;43.22;;;24.90;99.90;;;;;;5128609;28;20174;-76
2023/08/16 04:57:11;;;;;;;35.38;15.77;;;25.00;99.90;;;;;;5146189;28;20037;-77
2023/08/16 04:59:41;;;;;;;29.65;16.45;;;25.00;99.90;;;;;;5145979;28;20043;-77
2023/08/16 05:02:12;;;;;;;31.77;15.27;;;25.10;99.90;;;;;;5145966;28;20026;-79
2023/08/16 05:04:43;;;;;;;33.20;15.90;;;25.10;99.90;;;;;;5145760;28;20089;-82
2023/08/16 05:07:14;;;;;;;37.38;16.70;;;25.10;99.90;;;;;;5128365;28;20501;-77
2023/08/16 05:09:46;;;;;;;30.00;16.02;;;25.00;99.90;;;;;;5145886;28;20479;-76
2023/08/16 05:12:16;;;;;;;34.22;16.30;;;25.10;99.90;;;;;;5146358;28;20030;-77
2023/08/16 05:14:47;;;;;;;33.70;17.48;;;25.00;99.90;;;;;;5146031;28;20030;-77
2023/08/16 05:17:18;;;;;;;35.63;16.80;;;25.10;99.90;;;;;;5128402;28;20027;-77
2023/08/16 05:19:49;;;;;;;38.70;17.90;;;25.00;99.90;;;;;;5145721;28;20031;-83
2023/08/16 05:22:22;;;;;;;26.95;16.45;;;25.10;99.90;;;;;;5145658;28;20023;-76
2023/08/16 05:24:53;;;;;;;30.08;17.10;;;25.10;99.90;;;;;;5145455;28;20534;-84
2023/08/16 05:27:24;;;;;;;29.85;16.95;;;25.10;99.90;;;;;;5128431;28;20059;-77
2023/08/16 05:29:55;;;;;;;30.50;16.75;;;25.20;99.90;;;;;;5144453;28;20117;-77
2023/08/16 05:32:26;;;;;;;31.48;17.30;;;25.20;99.90;;;;;;5145806;28;20491;-76
2023/08/16 05:34:57;;;;;;;33.97;17.48;;;25.20;99.90;;;;;;5128329;28;20117;-84
2023/08/16 05:37:27;;;;;;;32.58;16.65;;;25.20;99.90;;;;;;5130126;28;20027;-77
2023/08/16 05:39:58;;;;;;;33.35;17.48;;;25.20;99.90;;;;;;5149037;28;20046;-77
2023/08/16 05:42:30;;;;;;;34.60;16.38;;;25.30;99.90;;;;;;5149443;28;20086;-77
2023/08/16 05:45:01;;;;;;;30.80;16.77;;;25.40;99.90;;;;;;5131821;28;20039;-84
2023/08/16 05:47:32;;;;;;;29.73;17.50;;;25.50;99.90;;;;;;5148928;28;20127;-77
2023/08/16 05:50:03;;;;;;;28.20;16.52;;;25.50;99.90;;;;;;5149024;28;20033;-82
2023/08/16 05:52:34;;;;;;;32.67;17.80;;;25.50;99.90;;;;;;5131388;28;20058;-76
2023/08/16 05:55:05;;;;;;;23.77;17.38;;;25.50;99.90;;;;;;5148968;28;20049;-78
2023/08/16 05:57:36;;;;;;;34.25;17.10;;;25.40;99.90;;;;;;5147943;28;20039;-77
2023/08/16 06:00:07;;;;;;;28.85;16.40;;;25.50;99.90;;;;;;5131484;28;20446;-78
2023/08/16 06:02:38;;;;;;;28.05;16.23;;;25.50;99.90;;;;;;5148599;28;20030;-77
2023/08/16 06:05:09;;;;;;;22.65;16.17;;;25.50;99.90;;;;;;5148758;28;20030;-77
2023/08/16 06:07:40;;;;;;;22.40;16.10;;;25.50;99.90;;;;;;5131589;28;20026;-77
2023/08/16 06:10:11;;;;;;;26.63;16.35;;;25.50;99.90;;;;;;5148532;28;20062;-78
2023/08/16 06:12:42;;;;;;;25.08;17.33;;;25.50;99.90;;;;;;5131305;28;20019;-79
2023/08/16 06:15:13;;;;;;;27.25;16.35;;;25.50;99.90;;;;;;5148644;28;20034;-77
2023/08/16 06:17:44;;;;;;;26.10;17.23;;;25.50;99.90;;;;;;5148918;28;20033;-81
2023/08/16 06:20:15;;;;;;;27.08;16.88;;;25.50;99.90;;;;;;5131088;28;20039;-78
2023/08/16 06:22:45;;;;;;;26.40;17.23;;;25.50;99.90;;;;;;5148360;28;20019;-77
2023/08/16 06:25:16;;;;;;;26.95;16.77;;;25.50;99.90;;;;;;5148133;28;20051;-77
2023/08/16 06:27:47;;;;;;;26.35;16.35;;;25.50;99.90;;;;;;5147072;28;20022;-77
2023/08/16 06:30:18;;;;;;;27.95;16.30;;;25.60;99.90;;;;;;5130966;28;20506;-78
2023/08/16 06:32:49;;;;;;;27.70;16.98;;;25.60;99.90;;;;;;5148228;28;20046;-82
2023/08/16 06:35:20;;;;;;;23.95;16.00;;;25.50;99.90;;;;;;5148232;28;20493;-77
2023/08/16 06:37:51;;;;;;;25.10;16.45;;;25.60;99.90;;;;;;5148240;28;20367;-77
2023/08/16 06:40:22;;;;;;;23.10;16.05;;;25.60;99.90;;;;;;5148050;28;20039;-77
2023/08/16 06:42:53;;;;;;;29.83;16.52;;;25.80;99.90;;;;;;5147965;28;20026;-77
2023/08/16 06:45:24;;;;;;;31.58;16.02;;;25.80;99.90;;;;;;5147987;28;20038;-77
2023/08/16 06:47:55;;;;;;;24.67;16.02;;;25.80;99.90;;;;;;5146053;28;20175;-77
2023/08/16 06:50:26;;;;;;;25.95;16.40;;;25.80;99.90;;;;;;5147778;28;20106;-77
2023/08/16 06:52:57;;;;;;;29.48;16.90;;;25.70;99.90;;;;;;5147548;28;20019;-77
2023/08/16 06:55:28;;;;;;;26.17;16.27;;;25.80;99.90;;;;;;5147683;28;20038;-77
2023/08/16 06:58:01;;;;;;;21.98;15.43;;;25.80;99.90;;;;;;5130462;28;20391;-80
2023/08/16 07:00:32;;;;;;;25.05;15.75;;;25.80;99.90;;;;;;5147622;28;20045;-77
2023/08/16 07:03:04;;;;;;;27.52;16.38;;;25.70;99.90;;;;;;5147828;28;20027;-77
2023/08/16 07:05:34;;;;;;;26.85;16.30;;;25.70;99.90;;;;;;5147328;28;20045;-77
2023/08/16 07:08:06;;;;;;;24.27;16.27;;;25.70;99.90;;;;;;5147525;28;20023;-83
2023/08/16 07:10:37;;;;;;;24.75;15.95;;;25.70;99.90;;;;;;5130112;28;20044;-77
2023/08/16 07:13:08;;;;;;;23.58;16.13;;;25.70;99.90;;;;;;5147493;28;20483;-83
2023/08/16 07:15:39;;;;;;;28.23;16.60;;;25.70;99.90;;;;;;5147746;28;20445;-77
2023/08/16 07:18:09;;;;;;;19.75;15.48;;;25.80;99.90;;;;;;5129994;28;20027;-77
2023/08/16 07:20:40;;;;;;;26.35;16.15;;;25.80;99.90;;;;;;5147277;28;20502;-78
2023/08/16 07:23:11;;;;;;;22.63;15.82;;;25.90;99.90;;;;;;5147209;28;20093;-77
2023/08/16 07:25:42;;;;;;;24.70;16.15;;;25.80;99.90;;;;;;5129592;28;20043;-77
2023/08/16 07:28:13;;;;;;;24.88;16.45;;;25.80;99.90;;;;;;5129884;28;20110;-77
2023/08/16 07:30:44;;;;;;;26.98;16.63;;;25.90;99.90;;;;;;5147469;28;20681;-77
2023/08/16 07:33:15;;;;;;;22.05;15.80;;;26.00;99.90;;;;;;5147055;28;20030;-77
2023/08/16 07:35:46;;;;;;;23.73;16.40;;;25.80;99.90;;;;;;5147087;28;20109;-77
2023/08/16 07:38:17;;;;;;;23.73;16.33;;;25.90;99.90;;;;;;5147068;28;20031;-77
2023/08/16 07:40:48;;;;;;;23.15;16.80;;;26.00;99.90;;;;;;5146843;28;20039;-77
2023/08/16 07:43:19;;;;;;;19.40;16.38;;;25.90;99.90;;;;;;5146946;28;20027;-79
2023/08/16 07:45:53;;;;;;;19.25;16.63;;;26.00;99.90;;;;;;5129251;28;20038;-77
2023/08/16 07:48:24;;;;;;;22.00;17.85;;;26.00;99.90;;;;;;5147130;28;20110;-79
2023/08/16 07:50:55;;;;;;;24.73;17.30;;;26.00;99.90;;;;;;5129497;28;20161;-77
2023/08/16 07:53:26;;;;;;;22.85;18.02;;;26.00;99.90;;;;;;5146448;28;20031;-77
2023/08/16 07:55:57;;;;;;;23.92;17.90;;;26.00;99.90;;;;;;5129271;28;20058;-77
2023/08/16 07:58:28;;;;;;;27.75;18.13;;;25.90;99.90;;;;;;5129236;28;20051;-76
2023/08/16 08:01:00;;;;;;;25.38;18.60;;;25.80;99.90;;;;;;5129016;28;20049;-77
2023/08/16 08:03:30;;;;;;;23.83;18.73;;;25.80;99.90;;;;;;5146751;28;20027;-77
2023/08/16 08:06:02;;;;;;;23.40;18.80;;;25.70;99.90;;;;;;5146502;28;20023;-77
2023/08/16 08:08:33;;;;;;;27.05;18.70;;;25.80;99.90;;;;;;5129193;28;20027;-77
2023/08/16 08:11:09;;;;;;;24.80;18.80;;;25.70;99.90;;;;;;5146468;28;20027;-80
2023/08/16 08:13:40;;;;;;;22.35;18.52;;;25.90;99.90;;;;;;5129159;28;20467;-77
2023/08/16 08:16:10;;;;;;;23.60;17.95;;;26.00;99.90;;;;;;5146505;28;20023;-77
2023/08/16 08:18:41;;;;;;;26.60;18.52;;;26.00;99.90;;;;;;5146384;28;20023;-77
2023/08/16 08:21:12;;;;;;;24.92;18.60;;;25.90;99.90;;;;;;5129030;28;20062;-84
2023/08/16 08:23:43;;;;;;;24.92;17.08;;;26.00;99.90;;;;;;5128404;28;20042;-76
2023/08/16 08:26:16;;;;;;;23.92;17.85;;;26.10;99.90;;;;;;5129084;28;20039;-77
2023/08/16 08:28:46;;;;;;;23.45;17.15;;;26.00;99.90;;;;;;5146558;28;20056;-83
2023/08/16 08:31:17;;;;;;;25.55;17.30;;;26.00;99.90;;;;;;5128891;28;20034;-76
2023/08/16 08:33:48;;;;;;;26.10;18.90;;;26.00;99.90;;;;;;5128922;28;20114;-77
2023/08/16 08:36:20;;;;;;;30.73;18.20;;;25.90;99.90;;;;;;5128708;28;20035;-81
2023/08/16 08:38:51;;;;;;;27.85;18.88;;;26.00;99.90;;;;;;5144802;28;20406;-83
2023/08/16 08:41:23;;;;;;;24.30;17.60;;;25.90;99.90;;;;;;5144790;28;20035;-77
2023/08/16 08:43:54;;;;;;;26.75;18.92;;;26.00;99.90;;;;;;5146209;28;20048;-81
2023/08/16 08:46:28;;;;;;;26.20;18.05;;;26.00;99.90;;;;;;5146143;28;20101;-78
2023/08/16 08:49:00;;;;;;;24.00;18.73;;;26.00;99.90;;;;;;5128802;28;20034;-80
2023/08/16 08:51:33;;;;;;;27.40;18.70;;;26.00;99.90;;;;;;5144743;28;20435;-80
2023/08/16 08:54:05;;;;;;;25.35;17.27;;;26.10;99.90;;;;;;5145971;28;20042;-79
2023/08/16 08:56:37;;;;;;;27.02;18.50;;;26.00;99.90;;;;;;5145971;28;20031;-78
2023/08/16 08:59:11;;;;;;;26.90;18.10;;;26.00;99.90;;;;;;5146013;28;20034;-83
2023/08/16 09:01:45;;;;;;;29.90;18.77;;;26.00;99.90;;;;;;5146002;28;20015;-84
2023/08/16 09:04:17;;;;;;;27.98;18.35;;;25.90;99.90;;;;;;5144648;28;20034;-77
2023/08/16 09:06:48;;;;;;;25.35;18.08;;;25.80;99.90;;;;;;5128568;28;20029;-77
2023/08/16 09:09:22;;;;;;;29.55;18.15;;;25.80;99.90;;;;;;5146273;28;20512;-77
2023/08/16 09:11:53;;;;;;;27.38;17.45;;;25.90;99.90;;;;;;5145575;28;20076;-77
2023/08/16 09:14:24;;;;;;;23.27;17.35;;;25.90;99.90;;;;;;5132198;28;20445;-78
2023/08/16 09:16:55;;;;;;;26.40;17.52;;;26.00;99.90;;;;;;5149630;28;20027;-76
2023/08/16 09:19:26;;;;;;;24.98;17.90;;;26.10;99.90;;;;;;5149620;28;20066;-77
2023/08/16 09:21:57;;;;;;;27.00;16.55;;;26.20;99.90;;;;;;5149816;28;20125;-83
2023/08/16 09:24:31;;;;;;;26.85;16.58;;;26.30;99.90;;;;;;5149364;28;20054;-84
2023/08/16 09:27:02;;;;;;;25.75;15.30;;;26.30;99.90;;;;;;5132002;28;20031;-77
2023/08/16 09:29:32;;;;;;;25.55;15.65;;;26.50;99.90;;;;;;5149657;28;20031;-77
2023/08/16 09:32:07;;;;;;;24.13;15.32;;;26.60;99.90;;;;;;5132054;28;20533;-83
2023/08/16 09:34:38;;;;;;;26.33;15.90;;;26.70;99.90;;;;;;5132037;28;20034;-77
2023/08/16 09:37:09;;;;;;;27.27;15.35;;;26.80;99.90;;;;;;5148127;28;20502;-78
2023/08/16 09:39:40;;;;;;;27.08;14.90;;;26.80;99.90;;;;;;5149261;28;20373;-80
2023/08/16 09:42:11;;;;;;;25.35;15.00;;;27.00;99.90;;;;;;5131889;28;20073;-83
2023/08/16 09:44:46;;;;;;;31.08;13.85;;;27.10;99.90;;;;;;5149354;28;20033;-76
2023/08/16 09:47:17;;;;;;;29.77;13.77;;;27.00;99.90;;;;;;5148997;28;20023;-76
2023/08/16 09:49:49;;;;;;;26.77;12.63;;;26.90;99.90;;;;;;5131694;28;20378;-76
2023/08/16 09:52:20;;;;;;;28.67;13.30;;;27.00;99.90;;;;;;5131574;28;20475;-83
2023/08/16 09:54:53;;;;;;;27.10;11.15;;;27.10;99.90;;;;;;5131916;28;20156;-79
2023/08/16 09:57:25;;;;;;;32.65;10.95;;;27.30;99.90;;;;;;5148917;28;20034;-78
2023/08/16 09:59:56;;;;;;;22.55;10.18;;;27.20;99.90;;;;;;5148870;28;20041;-80
2023/08/16 10:02:29;;;;;;;24.20;10.45;;;27.10;99.90;;;;;;5131427;28;20114;-77
2023/08/16 10:05:01;;;;;;;26.83;10.38;;;27.40;99.90;;;;;;5148773;28;20054;-77
2023/08/16 10:07:33;;;;;;;24.90;9.95;;;27.60;99.90;;;;;;5131797;28;20038;-77
2023/08/16 10:10:07;;;;;;;21.67;9.55;;;27.80;99.90;;;;;;5148882;28;20054;-84
2023/08/16 10:12:38;;;;;;;26.13;9.52;;;27.50;99.90;;;;;;5131170;28;20062;-77
2023/08/16 10:15:10;;;;;;;22.17;10.82;;;27.70;99.90;;;;;;5131305;28;20027;-81
2023/08/16 10:17:43;;;;;;;22.52;11.40;;;28.10;99.90;;;;;;5131275;28;20077;-77
2023/08/16 10:20:19;;;;;;;23.15;12.00;;;28.00;99.90;;;;;;5148461;28;20042;-83
2023/08/16 10:23:11;;;;;;;25.08;11.75;;;27.80;99.90;;;;;;5148343;28;20399;-84
2023/08/16 10:25:45;;;;;;;25.58;11.32;;;27.80;99.90;;;;;;5126993;29;20094;-77
2023/08/16 10:28:19;;;;;;;23.27;12.00;;;27.70;99.90;;;;;;5128495;29;20427;-77
2023/08/16 10:30:56;;;;;;;18.63;12.38;;;27.70;99.90;;;;;;5128365;29;20065;-78
2023/08/16 10:33:36;;;;;;;22.58;12.65;;;27.50;99.90;;;;;;5128297;29;20033;-83
2023/08/16 10:36:09;;;;;;;17.85;11.13;;;27.80;99.90;;;;;;5128495;29;20034;-77
2023/08/16 10:38:44;;;;;;;19.67;12.07;;;27.60;99.90;;;;;;5128248;29;20027;-78
2023/08/16 10:41:15;;;;;;;15.18;11.82;;;27.70;99.90;;;;;;5126811;29;20511;-77
2023/08/16 10:43:49;;;;;;;18.40;12.20;;;27.70;99.90;;;;;;5142967;28;20059;-78
2023/08/16 10:46:31;;;;;;;18.77;13.32;;;27.70;99.90;;;;;;5128708;29;20070;-78
2023/08/16 10:49:03;;;;;;;24.17;13.82;;;27.80;99.90;;;;;;5128006;29;20038;-83
2023/08/16 10:51:51;;;;;;;20.88;12.32;;;27.80;99.90;;;;;;5142706;28;20120;-78
2023/08/16 10:54:35;;;;;;;21.95;14.63;;;27.50;99.90;;;;;;5127954;29;20041;-77
2023/08/16 10:57:08;;;;;;;20.30;14.82;;;27.30;99.90;;;;;;5126452;29;20121;-77
2023/08/16 10:59:41;;;;;;;15.45;13.30;;;27.20;99.90;;;;;;5127811;29;20046;-82
2023/08/16 11:02:17;;;;;;;19.20;13.27;;;26.90;99.90;;;;;;5126562;29;20050;-76
2023/08/16 11:04:48;;;;;;;17.30;13.82;;;27.10;99.90;;;;;;5127812;29;20435;-76
2023/08/16 11:07:20;;;;;;;18.98;13.43;;;27.30;99.90;;;;;;5142534;28;20122;-77
2023/08/16 11:09:50;;;;;;;17.98;14.13;;;27.00;99.90;;;;;;5142404;28;20510;-80
2023/08/16 11:12:29;;;;;;;18.17;13.73;;;27.10;99.90;;;;;;5127255;28;20028;-77
2023/08/16 11:15:00;;;;;;;16.05;14.20;;;27.10;99.90;;;;;;5142357;28;20037;-78
2023/08/16 11:17:31;;;;;;;18.15;14.45;;;27.00;99.90;;;;;;5127660;29;20023;-77
2023/08/16 11:20:04;;;;;;;21.02;14.32;;;26.80;99.90;;;;;;5126104;29;20043;-77
2023/08/16 11:22:36;;;;;;;23.75;14.85;;;26.80;99.90;;;;;;5638164;23;20053;-77
2023/08/16 11:25:09;;;;;;;17.52;14.45;;;27.00;99.90;;;;;;5147052;28;20031;-83
2023/08/16 11:27:41;;;;;;;16.42;13.75;;;26.80;99.90;;;;;;5147140;28;20106;-77
2023/08/16 11:30:13;;;;;;;20.27;14.73;;;26.80;99.90;;;;;;5129882;28;20035;-77
2023/08/16 11:32:43;;;;;;;19.00;14.98;;;27.00;99.90;;;;;;5129859;28;20034;-77
2023/08/16 11:35:16;;;;;;;22.48;15.45;;;27.40;99.90;;;;;;5129112;28;20031;-77
2023/08/16 11:37:46;;;;;;;17.75;15.02;;;27.50;99.90;;;;;;5147111;28;20030;-77
2023/08/16 11:40:22;;;;;;;21.60;15.60;;;27.20;99.90;;;;;;5146894;28;20042;-77
2023/08/16 11:42:53;;;;;;;22.63;15.00;;;27.20;99.90;;;;;;5147094;28;20026;-82
2023/08/16 11:45:24;;;;;;;20.45;15.73;;;27.00;99.90;;;;;;5146680;28;20034;-77
2023/08/16 11:47:55;;;;;;;21.42;15.38;;;27.20;99.90;;;;;;5129698;28;20023;-78
2023/08/16 11:50:26;;;;;;;19.60;13.90;;;27.30;99.90;;;;;;5147095;28;20109;-77
2023/08/16 11:53:01;;;;;;;23.25;15.50;;;27.20;99.90;;;;;;5157490;28;20101;-82
2023/08/16 11:55:33;;;;;;;18.75;14.85;;;27.20;99.90;;;;;;5167145;28;20034;-83
2023/08/16 11:58:05;;;;;;;20.10;14.95;;;27.20;99.90;;;;;;5166796;28;20478;-77
2023/08/16 12:00:38;;;;;;;15.88;13.90;;;27.30;99.90;;;;;;5149160;28;20034;-77
2023/08/16 12:03:10;;;;;;;18.98;14.30;;;27.30;99.90;;;;;;5166687;28;20023;-77
2023/08/16 12:05:41;;;;;;;21.88;13.13;;;27.40;99.90;;;;;;5149065;28;20058;-77
2023/08/16 12:08:13;;;;;;;14.85;13.25;;;27.50;99.90;;;;;;5167107;28;20057;-83
2023/08/16 12:10:54;;;;;;;18.98;13.70;;;27.50;99.90;;;;;;5148861;28;20030;-77
2023/08/16 12:13:24;;;;;;;12.93;11.60;;;27.70;99.90;;;;;;5166690;28;20498;-79
2023/08/16 12:15:55;;;;;;;12.57;11.02;;;27.90;99.90;;;;;;5148746;28;20065;-78
2023/08/16 12:18:26;;;;;;;14.18;11.13;;;28.10;99.90;;;;;;5148980;28;20063;-76
2023/08/16 12:20:59;;;;;;;14.70;11.10;;;28.30;99.90;;;;;;5166228;28;20045;-77
2023/08/16 12:23:30;;;;;;;13.27;9.80;;;28.10;99.90;;;;;;5148610;28;20406;-77
2023/08/16 12:26:01;;;;;;;16.92;10.95;;;28.10;99.90;;;;;;5166109;28;20022;-76
2023/08/16 12:28:31;;;;;;;13.75;10.25;;;28.30;99.90;;;;;;5165988;28;20057;-76
2023/08/16 12:31:04;;;;;;;16.17;10.98;;;28.20;99.90;;;;;;5148845;28;20022;-76
2023/08/16 12:33:35;;;;;;;16.17;11.02;;;28.00;99.90;;;;;;5166409;28;20030;-82
2023/08/16 12:36:06;;;;;;;13.43;11.23;;;28.00;99.90;;;;;;5148961;28;20019;-76
2023/08/16 12:38:38;;;;;;;14.40;11.60;;;27.90;99.90;;;;;;5166537;28;20035;-76
2023/08/16 12:41:09;;;;;;;12.95;10.55;;;27.90;99.90;;;;;;5166206;28;20959;-80
2023/08/16 12:43:41;;;;;;;15.30;10.98;;;27.80;99.90;;;;;;5166301;28;20054;-81
2023/08/16 12:46:12;;;;;;;14.80;11.05;;;27.60;99.90;;;;;;5165982;28;20023;-76
2023/08/16 12:48:42;;;;;;;14.45;11.27;;;27.70;99.90;;;;;;5170405;28;20028;-77
2023/08/16 12:51:13;;;;;;;14.15;10.40;;;27.50;99.90;;;;;;5152805;28;20030;-78